Time;durP1;ratioP1;P1;durP2;ratioP2;P2;SDS_P1;SDS_P2;PMS_P1;PMS_P2;Temp;Humidity;BMP_temperature;BMP_pressure;BME280_temperature;BME280_humidity;BME280_pressure;Samples;Min_cycle;Max_cycle;Signal;HPM_P1;HPM_P2
2021/12/07 00:02:13;;;;;;;2.45;1.27;;;;;;;4.88;92.25;93368.63;5121064;28;20197;-74
2021/12/07 00:04:41;;;;;;;1.75;1.45;;;;;;;4.78;92.28;93371.69;5125060;27;20250;-74
2021/12/07 00:07:08;;;;;;;1.25;1.00;;;;;;;4.72;92.23;93370.28;5124626;27;20201;-73
2021/12/07 00:09:36;;;;;;;0.90;0.90;;;;;;;4.69;92.25;93360.19;5148199;27;20291;-73
2021/12/07 00:12:04;;;;;;;1.13;1.02;;;;;;;4.69;92.51;93360.19;5144960;27;20318;-74
2021/12/07 00:14:37;;;;;;;1.15;1.00;;;;;;;4.71;93.09;93368.69;5141390;27;20239;-74
2021/12/07 00:17:05;;;;;;;2.10;1.25;;;;;;;4.67;92.85;93370.44;5143517;27;20232;-74
2021/12/07 00:19:33;;;;;;;1.02;0.93;;;;;;;4.66;92.71;93366.19;5148633;27;20197;-76
2021/12/07 00:22:00;;;;;;;3.42;1.20;;;;;;;4.72;92.83;93364.91;5147408;27;20211;-75
2021/12/07 00:24:28;;;;;;;1.05;0.90;;;;;;;4.62;93.00;93360.69;5141083;27;20616;-77
2021/12/07 00:26:55;;;;;;;0.95;0.85;;;;;;;4.67;92.71;93357.03;5141979;27;20189;-75
2021/12/07 00:29:22;;;;;;;0.70;0.70;;;;;;;4.58;92.26;93364.31;5139996;27;20196;-75
2021/12/07 00:32:05;;;;;;;1.15;1.05;;;;;;;4.58;92.82;93364.31;5141141;27;20228;-76
2021/12/07 00:34:44;;;;;;;2.20;1.10;;;;;;;4.55;92.58;93371.13;5122553;27;20185;-75
2021/12/07 00:37:11;;;;;;;0.90;0.90;;;;;;;4.49;92.93;93377.78;5148080;27;20639;-74
2021/12/07 00:39:38;;;;;;;2.40;1.33;;;;;;;4.51;92.91;93380.13;5144281;27;20256;-75
2021/12/07 00:42:06;;;;;;;1.17;0.90;;;;;;;4.50;92.73;93373.19;5151362;27;20193;-75
2021/12/07 00:44:33;;;;;;;0.85;0.40;;;;;;;4.52;92.72;93376.31;5144537;27;20196;-75
2021/12/07 00:47:01;;;;;;;0.90;0.85;;;;;;;4.51;93.02;93375.53;5133713;27;20297;-75
2021/12/07 00:49:28;;;;;;;0.88;0.88;;;;;;;4.49;93.04;93372.41;5134390;27;20200;-76
2021/12/07 00:51:55;;;;;;;1.77;1.02;;;;;;;4.53;93.20;93367.97;5140899;27;20631;-75
2021/12/07 00:54:22;;;;;;;0.90;0.75;;;;;;;4.58;93.17;93381.19;5143722;27;20719;-75
2021/12/07 00:56:49;;;;;;;1.05;0.82;;;;;;;4.62;92.65;93376.78;5146762;27;20280;-74
2021/12/07 00:59:16;;;;;;;1.45;0.80;;;;;;;4.62;92.68;93376.78;5113228;27;20251;-75
2021/12/07 01:01:43;;;;;;;3.70;0.80;;;;;;;4.55;92.73;93375.69;5146745;27;20220;-75
2021/12/07 01:04:12;;;;;;;0.60;0.57;;;;;;;4.59;92.40;93377.41;5145841;27;20204;-74
2021/12/07 01:06:48;;;;;;;0.43;0.43;;;;;;;4.57;91.98;93362.75;5140392;27;20331;-74
2021/12/07 01:09:23;;;;;;;0.50;0.50;;;;;;;4.58;92.31;93372.38;5140435;27;20197;-75
2021/12/07 01:25:40;;;;;;;0.40;0.40;;;;;;;4.73;92.40;93365.69;5148921;27;20305;-75
2021/12/07 01:28:17;;;;;;;0.93;0.70;;;;;;;4.76;92.59;93363.16;5144841;27;20197;-75
2021/12/07 01:30:50;;;;;;;1.52;0.68;;;;;;;4.84;92.70;93366.91;5147426;27;20215;-77
2021/12/07 01:33:33;;;;;;;0.63;0.60;;;;;;;4.80;93.27;93363.28;5144441;27;20193;-75
2021/12/07 01:36:15;;;;;;;0.50;0.50;;;;;;;4.81;93.21;93354.91;5132166;27;20197;-74
2021/12/07 01:41:47;;;;;;;0.60;0.55;;;;;;;4.88;93.47;93341.00;5144773;27;20231;-74
2021/12/07 01:44:29;;;;;;;0.90;0.70;;;;;;;4.95;93.49;93352.81;5128052;27;20188;-74
2021/12/07 01:47:21;;;;;;;0.43;0.40;;;;;;;5.04;93.37;93341.25;5139708;27;20188;-75
2021/12/07 01:52:54;;;;;;;1.85;0.52;;;;;;;4.95;93.51;93336.69;5143457;27;20220;-74
2021/12/07 02:00:48;;;;;;;0.63;0.63;;;;;;;4.79;94.29;93322.25;5143108;27;20538;-75
2021/12/07 02:03:16;;;;;;;0.75;0.73;;;;;;;4.64;94.75;93314.78;5148246;27;20736;-76
2021/12/07 02:05:43;;;;;;;0.77;0.77;;;;;;;4.53;94.69;93313.53;5120662;27;20217;-74
2021/12/07 02:08:11;;;;;;;1.20;0.90;;;;;;;4.49;94.89;93315.31;5144809;27;20600;-75
2021/12/07 02:10:39;;;;;;;1.88;1.73;;;;;;;4.44;94.76;93316.28;5144855;27;20261;-76
2021/12/07 02:13:18;;;;;;;0.80;0.75;;;;;;;4.48;94.75;93327.16;5138994;27;20196;-75
2021/12/07 02:15:46;;;;;;;0.82;0.73;;;;;;;4.38;94.64;93314.06;5138780;27;20192;-76
2021/12/07 02:18:13;;;;;;;1.05;0.95;;;;;;;4.45;94.72;93320.53;5145254;27;20204;-77
2021/12/07 02:20:46;;;;;;;2.97;1.17;;;;;;;4.38;94.27;93316.75;5146395;27;20244;-76
2021/12/07 02:23:15;;;;;;;4.43;1.00;;;;;;;4.27;93.75;93311.75;5141032;27;20192;-77
2021/12/07 02:25:41;;;;;;;1.27;0.70;;;;;;;4.23;93.91;93316.19;5139554;27;20251;-76
2021/12/07 02:28:13;;;;;;;3.72;0.75;;;;;;;4.11;93.39;93313.38;5142637;27;20258;-76
2021/12/07 02:30:42;;;;;;;1.17;0.88;;;;;;;4.05;93.23;93309.31;5145854;27;20197;-76
2021/12/07 02:33:10;;;;;;;1.10;0.70;;;;;;;4.07;93.45;93306.31;5132249;27;20197;-75
2021/12/07 02:35:37;;;;;;;1.38;0.93;;;;;;;4.00;93.71;93312.13;5129416;27;20197;-76
2021/12/07 02:38:06;;;;;;;0.80;0.80;;;;;;;4.07;93.85;93311.66;5132589;27;20200;-75
2021/12/07 02:40:34;;;;;;;2.20;0.90;;;;;;;3.97;93.65;93311.97;5138581;27;20572;-76
2021/12/07 02:43:01;;;;;;;1.48;1.02;;;;;;;4.05;93.82;93311.97;5140837;27;20253;-75
2021/12/07 02:45:28;;;;;;;1.08;0.60;;;;;;;3.93;93.50;93307.28;5145561;27;20216;-76
2021/12/07 02:47:55;;;;;;;0.55;0.55;;;;;;;3.77;93.71;93318.81;5143677;27;20299;-75
2021/12/07 02:50:22;;;;;;;2.15;0.70;;;;;;;3.67;94.25;93311.09;5138768;27;20200;-75
2021/12/07 02:52:49;;;;;;;3.75;1.48;;;;;;;3.66;94.24;93312.22;5140304;27;20755;-75
2021/12/07 02:55:17;;;;;;;1.50;0.70;;;;;;;3.64;94.14;93314.41;5145514;27;20686;-75
2021/12/07 02:57:46;;;;;;;1.13;0.85;;;;;;;3.69;94.33;93317.69;5135245;27;20204;-75
2021/12/07 03:00:19;;;;;;;1.38;0.88;;;;;;;3.68;93.76;93326.06;5137383;27;20287;-76
2021/12/07 03:02:53;;;;;;;1.55;0.85;;;;;;;3.65;93.69;93321.34;5138039;27;20234;-75
2021/12/07 03:05:32;;;;;;;2.65;1.38;;;;;;;3.72;93.88;93327.00;5144146;27;20186;-76
2021/12/07 03:08:22;;;;;;;0.98;0.70;;;;;;;3.67;92.86;93300.41;5145219;27;20192;-75
2021/12/07 03:27:16;;;;;;;0.75;0.40;;;;;;;3.16;92.39;93309.97;5145688;27;20272;-75
2021/12/07 03:29:44;;;;;;;1.45;0.47;;;;;;;3.14;92.50;93312.22;5123545;28;20255;-76
2021/12/07 03:32:12;;;;;;;0.77;0.50;;;;;;;3.12;92.51;93309.84;5126883;27;20236;-74
2021/12/07 03:34:38;;;;;;;0.40;0.40;;;;;;;3.04;92.96;93301.78;5143899;27;20275;-76
2021/12/07 03:37:05;;;;;;;0.30;0.30;;;;;;;3.10;92.90;93311.25;5145448;27;20200;-76
2021/12/07 03:39:32;;;;;;;2.85;0.55;;;;;;;2.98;92.52;93297.72;5122802;27;20217;-74
2021/12/07 03:41:59;;;;;;;0.65;0.60;;;;;;;3.01;92.89;93305.09;5118510;27;20290;-75
2021/12/07 03:44:26;;;;;;;0.63;0.47;;;;;;;3.02;93.07;93304.78;5146588;27;20197;-74
2021/12/07 03:46:54;;;;;;;0.30;0.30;;;;;;;3.10;92.57;93300.56;5132794;27;20262;-74
2021/12/07 03:49:21;;;;;;;1.13;0.68;;;;;;;3.06;92.38;93291.56;5123620;27;20196;-75
2021/12/07 03:51:48;;;;;;;3.13;0.50;;;;;;;2.88;91.97;93298.78;5149095;27;20231;-75
2021/12/07 03:54:15;;;;;;;0.40;0.40;;;;;;;2.94;92.53;93302.09;5145182;27;20204;-75
2021/12/07 03:56:41;;;;;;;0.57;0.57;;;;;;;3.03;92.12;93301.00;5142047;27;20204;-76
2021/12/07 03:59:08;;;;;;;0.82;0.70;;;;;;;3.04;92.18;93301.78;5125474;27;20265;-75
2021/12/07 04:01:36;;;;;;;0.77;0.47;;;;;;;2.93;92.44;93311.22;5139272;27;20192;-75
2021/12/07 04:04:04;;;;;;;1.13;0.30;;;;;;;3.01;92.21;93313.09;5143967;27;20208;-75
2021/12/07 04:06:31;;;;;;;0.57;0.57;;;;;;;2.93;92.07;93316.56;5148835;27;20196;-75
2021/12/07 04:08:58;;;;;;;1.40;0.95;;;;;;;2.82;92.15;93311.53;5146656;27;20212;-75
2021/12/07 04:11:25;;;;;;;0.50;0.50;;;;;;;2.74;91.43;93312.28;5150049;27;20217;-75
2021/12/07 04:13:52;;;;;;;0.65;0.50;;;;;;;2.73;91.26;93313.38;5147162;27;20200;-75
2021/12/07 04:16:20;;;;;;;1.95;0.60;;;;;;;2.70;91.36;93307.88;5141267;27;20256;-75
2021/12/07 04:18:47;;;;;;;0.80;0.50;;;;;;;2.77;91.74;93314.31;5142064;27;20619;-75
2021/12/07 04:21:16;;;;;;;0.43;0.43;;;;;;;2.74;91.29;93312.28;5147955;27;20200;-75
2021/12/07 04:23:42;;;;;;;3.95;0.50;;;;;;;2.77;91.55;93311.66;5133756;27;20201;-75
2021/12/07 04:26:12;;;;;;;0.85;0.32;;;;;;;2.74;91.50;93314.16;5147564;27;20197;-75
2021/12/07 04:28:39;;;;;;;0.90;0.63;;;;;;;2.68;91.60;93310.06;5148030;27;20219;-75
2021/12/07 04:31:07;;;;;;;1.35;0.60;;;;;;;2.66;91.23;93301.56;5141717;27;20220;-74
2021/12/07 04:33:34;;;;;;;0.40;0.40;;;;;;;2.59;91.56;93307.38;5140722;27;20205;-75
2021/12/07 04:36:02;;;;;;;0.30;0.30;;;;;;;2.61;91.23;93299.81;5142950;27;20200;-75
2021/12/07 04:38:30;;;;;;;0.30;0.30;;;;;;;2.57;91.21;93304.22;5141037;27;20223;-75
2021/12/07 04:40:57;;;;;;;0.60;0.50;;;;;;;2.53;91.23;93305.94;5132652;27;20277;-75
2021/12/07 04:43:24;;;;;;;0.70;0.57;;;;;;;2.57;90.98;93303.44;5132458;27;20242;-75
2021/12/07 04:46:03;;;;;;;0.55;0.50;;;;;;;2.40;91.20;93290.81;5133862;27;20540;-74
2021/12/07 04:59:47;;;;;;;0.60;0.55;;;;;;;2.06;91.88;93312.78;5068454;28;20210;-75
2021/12/07 05:02:16;;;;;;;1.52;0.75;;;;;;;2.07;91.77;93307.16;5116173;27;20197;-74
2021/12/07 05:04:43;;;;;;;0.88;0.60;;;;;;;1.98;92.32;93314.34;5129407;27;20244;-74
2021/12/07 05:07:16;;;;;;;0.45;0.40;;;;;;;1.90;92.14;93312.41;5133096;27;20196;-74
2021/12/07 05:12:46;;;;;;;0.50;0.50;;;;;;;1.81;92.79;93316.91;5115455;27;20362;-74
2021/12/07 05:15:21;;;;;;;0.50;0.45;;;;;;;1.79;92.37;93314.53;5141918;27;20681;-73
2021/12/07 05:18:21;;;;;;;1.38;0.77;;;;;;;1.70;92.86;93312.91;5139292;27;20674;-73
2021/12/07 05:23:57;;;;;;;0.60;0.60;;;;;;;1.67;92.88;93313.50;5096625;28;20387;-75
2021/12/07 05:34:51;;;;;;;1.08;0.70;;;;;;;1.56;92.60;93322.88;5119268;27;20204;-75
2021/12/07 05:40:07;;;;;;;1.00;0.70;;;;;;;1.62;92.43;93311.00;5120386;27;20759;-75
2021/12/07 05:42:38;;;;;;;0.80;0.65;;;;;;;1.60;92.62;93305.16;5125655;27;20265;-75
2021/12/07 05:45:07;;;;;;;1.67;1.45;;;;;;;1.52;93.00;93300.53;5128533;27;20637;-74
2021/12/07 05:47:34;;;;;;;1.25;0.98;;;;;;;1.61;92.78;93304.06;5130237;27;20209;-74
2021/12/07 05:50:02;;;;;;;0.70;0.70;;;;;;;1.56;93.19;93306.84;5130841;27;20204;-75
2021/12/07 05:52:28;;;;;;;0.95;0.63;;;;;;;1.50;93.03;93302.75;5127682;27;20244;-75
2021/12/07 05:54:55;;;;;;;0.93;0.82;;;;;;;1.52;93.13;93303.22;5114573;27;20202;-75
2021/12/07 05:57:22;;;;;;;1.25;0.88;;;;;;;1.49;93.12;93295.84;5119261;27;20221;-75
2021/12/07 05:59:50;;;;;;;2.25;0.90;;;;;;;1.50;92.57;93313.41;5117564;27;20273;-75
2021/12/07 06:02:17;;;;;;;0.77;0.65;;;;;;;1.46;92.66;93312.44;5109357;28;20572;-75
2021/12/07 06:04:44;;;;;;;0.85;0.75;;;;;;;1.45;92.17;93305.53;5126550;27;20470;-75
2021/12/07 06:07:11;;;;;;;1.00;0.80;;;;;;;1.36;92.60;93313.47;5130326;27;20235;-74
2021/12/07 06:09:38;;;;;;;2.35;1.20;;;;;;;1.37;93.29;93310.47;5144622;27;21037;-75
2021/12/07 06:12:08;;;;;;;0.73;0.60;;;;;;;1.37;93.09;93307.81;5130873;27;20232;-74
2021/12/07 06:14:42;;;;;;;1.30;0.98;;;;;;;1.37;92.81;93315.81;5144166;27;20245;-76
2021/12/07 06:17:11;;;;;;;1.65;1.30;;;;;;;1.35;93.14;93318.03;5143366;27;20226;-76
2021/12/07 06:19:38;;;;;;;1.23;1.10;;;;;;;1.40;92.96;93320.56;5130974;27;20197;-75
2021/12/07 06:22:06;;;;;;;3.10;1.60;;;;;;;1.29;93.28;93313.88;5130606;27;20200;-76
2021/12/07 06:24:33;;;;;;;1.17;0.77;;;;;;;1.35;93.20;93302.00;5131062;27;20989;-76
2021/12/07 06:27:01;;;;;;;1.02;0.93;;;;;;;1.42;92.91;93306.91;5130983;27;20610;-75
2021/12/07 06:29:28;;;;;;;1.77;0.80;;;;;;;1.40;92.25;93304.53;5116953;27;20364;-77
2021/12/07 06:31:55;;;;;;;7.03;1.33;;;;;;;1.50;91.74;93298.19;5144806;27;20200;-75
2021/12/07 06:34:23;;;;;;;1.45;1.02;;;;;;;1.50;91.85;93302.75;5119013;27;20712;-75
2021/12/07 06:36:50;;;;;;;1.27;0.75;;;;;;;1.48;91.96;93299.59;5131259;27;20201;-75
2021/12/07 06:39:18;;;;;;;1.85;1.17;;;;;;;1.41;92.11;93303.47;5144312;27;20208;-75
2021/12/07 06:41:45;;;;;;;1.48;1.00;;;;;;;1.39;92.59;93305.63;5144248;27;20224;-74
2021/12/07 06:44:12;;;;;;;3.65;1.40;;;;;;;1.36;92.78;93303.59;5137621;27;20274;-75
2021/12/07 06:46:39;;;;;;;1.92;1.65;;;;;;;1.28;92.43;93306.19;5136808;27;20727;-75
2021/12/07 06:49:05;;;;;;;1.17;1.08;;;;;;;1.32;92.60;93310.63;5143347;27;20197;-74
2021/12/07 06:51:33;;;;;;;1.63;1.10;;;;;;;1.31;93.10;93317.03;5144561;27;20200;-75
2021/12/07 06:54:00;;;;;;;1.83;1.00;;;;;;;1.37;93.27;93310.47;5138348;27;20284;-75
2021/12/07 06:56:28;;;;;;;5.82;1.55;;;;;;;1.35;93.01;93312.69;5136523;27;20598;-74
2021/12/07 06:58:55;;;;;;;3.22;1.80;;;;;;;1.31;93.55;93311.69;5131857;27;20235;-75
2021/12/07 07:01:22;;;;;;;1.38;0.98;;;;;;;1.31;92.61;93319.72;5143482;27;20204;-75
2021/12/07 07:03:49;;;;;;;0.70;0.70;;;;;;;1.29;92.43;93308.53;5119765;28;20255;-75
2021/12/07 07:06:16;;;;;;;1.05;0.90;;;;;;;1.23;92.07;93309.75;5111674;28;20209;-74
2021/12/07 07:08:44;;;;;;;1.75;1.23;;;;;;;1.19;92.42;93292.78;5139904;27;20199;-75
2021/12/07 07:11:11;;;;;;;2.33;1.38;;;;;;;1.19;92.81;93308.78;5137009;27;20248;-75
2021/12/07 07:13:38;;;;;;;1.33;1.05;;;;;;;1.21;93.47;93306.63;5141606;27;20301;-75
2021/12/07 07:16:06;;;;;;;1.35;1.08;;;;;;;1.19;93.02;93308.00;5148114;27;20204;-75
2021/12/07 07:18:34;;;;;;;1.30;1.10;;;;;;;1.24;92.71;93308.66;5144616;27;20200;-75
2021/12/07 07:21:01;;;;;;;2.25;1.27;;;;;;;1.25;93.23;93310.22;5140840;27;20205;-75
2021/12/07 07:23:29;;;;;;;2.22;1.50;;;;;;;1.30;93.07;93314.66;5154957;27;20207;-75
2021/12/07 07:25:58;;;;;;;3.90;1.58;;;;;;;1.23;93.38;93304.41;5133651;27;20202;-76
2021/12/07 07:28:25;;;;;;;0.95;0.88;;;;;;;1.20;92.45;93318.38;5124506;27;20293;-76
2021/12/07 07:30:52;;;;;;;2.08;1.20;;;;;;;1.15;92.23;93313.13;5144233;27;20680;-77
2021/12/07 07:33:19;;;;;;;3.40;1.63;;;;;;;1.16;92.76;93314.72;5124192;27;20250;-74
2021/12/07 07:35:47;;;;;;;1.85;1.40;;;;;;;1.08;93.41;93304.78;5138484;27;20200;-74
2021/12/07 07:38:15;;;;;;;2.28;1.63;;;;;;;1.15;93.30;93299.81;5143666;27;20212;-76
2021/12/07 07:40:43;;;;;;;3.13;1.23;;;;;;;1.16;93.39;93304.06;5147726;27;20696;-74
2021/12/07 07:43:12;;;;;;;1.70;0.95;;;;;;;1.16;92.55;93305.94;5146065;27;20219;-75
2021/12/07 07:45:38;;;;;;;2.70;1.15;;;;;;;1.01;93.00;93313.19;5127391;27;20249;-74
2021/12/07 07:48:05;;;;;;;2.13;1.10;;;;;;;1.03;93.59;93315.53;5132240;27;20287;-74
2021/12/07 07:50:32;;;;;;;2.10;1.38;;;;;;;0.95;93.65;93308.28;5141168;27;20552;-74
2021/12/07 07:53:01;;;;;;;2.65;1.17;;;;;;;0.89;93.43;93304.13;5143972;27;20269;-75
2021/12/07 07:55:28;;;;;;;1.70;1.35;;;;;;;1.00;93.92;93303.59;5133646;27;20736;-74
2021/12/07 07:57:55;;;;;;;2.55;1.33;;;;;;;0.92;94.31;93296.31;5127818;27;20205;-74
2021/12/07 08:00:24;;;;;;;1.52;1.33;;;;;;;1.02;94.34;93297.97;5134061;27;20205;-76
2021/12/07 08:02:52;;;;;;;2.90;1.48;;;;;;;1.05;93.95;93302.72;5143164;27;20214;-74
2021/12/07 08:05:25;;;;;;;2.90;2.08;;;;;;;0.97;94.27;93298.06;5137081;27;20638;-75
2021/12/07 08:07:52;;;;;;;1.50;1.35;;;;;;;0.99;93.50;93303.91;5141061;27;20196;-75
2021/12/07 08:10:20;;;;;;;1.27;1.17;;;;;;;0.99;93.58;93306.56;5137026;27;20201;-75
2021/12/07 08:12:48;;;;;;;1.48;1.08;;;;;;;0.96;93.45;93315.16;5141987;27;20318;-75
2021/12/07 08:15:15;;;;;;;1.67;1.15;;;;;;;0.94;93.45;93314.69;5145033;27;20211;-74
2021/12/07 08:17:44;;;;;;;2.03;1.45;;;;;;;0.96;93.48;93315.16;5139950;27;20314;-76
2021/12/07 08:20:11;;;;;;;2.30;1.20;;;;;;;0.90;93.35;93311.81;5130057;27;20250;-75
2021/12/07 08:22:38;;;;;;;2.58;1.38;;;;;;;0.85;93.82;93324.47;5111665;28;20293;-76
2021/12/07 08:25:06;;;;;;;1.70;1.08;;;;;;;0.83;93.16;93318.63;5112627;27;20339;-77
2021/12/07 08:27:32;;;;;;;2.63;1.67;;;;;;;0.94;93.50;93322.69;5116993;27;20208;-76
2021/12/07 08:29:59;;;;;;;3.45;1.58;;;;;;;1.04;93.27;93319.78;5131359;27;20220;-76
2021/12/07 08:32:26;;;;;;;2.42;1.60;;;;;;;1.02;93.45;93319.28;5121753;27;20206;-75
2021/12/07 08:34:55;;;;;;;1.67;1.30;;;;;;;1.07;93.39;93321.88;5117058;27;20262;-77
2021/12/07 08:37:22;;;;;;;1.30;1.10;;;;;;;1.06;93.40;93330.94;5118324;27;20269;-77
2021/12/07 08:39:48;;;;;;;1.67;1.00;;;;;;;0.96;93.01;93331.16;5135834;27;20259;-76
2021/12/07 08:42:16;;;;;;;2.80;1.50;;;;;;;1.05;93.05;93334.69;5111671;28;20645;-76
2021/12/07 08:44:42;;;;;;;2.42;1.63;;;;;;;1.14;92.95;93337.44;5121922;27;20238;-77
2021/12/07 08:47:09;;;;;;;2.28;1.48;;;;;;;1.13;92.88;93338.53;5111413;28;20205;-77
2021/12/07 08:49:36;;;;;;;2.28;1.48;;;;;;;1.04;92.84;93338.44;5130195;27;20253;-76
2021/12/07 08:52:06;;;;;;;3.42;1.55;;;;;;;1.16;92.61;93341.38;5130112;27;20205;-79
2021/12/07 08:59:37;;;;;;;1.48;0.75;;;;;;;1.10;92.16;93347.09;5130654;27;20204;-76
2021/12/07 09:00:09;;;;;;;1.13;1.02;;;;;;;1.07;92.28;93359.19;5131012;27;20216;-77
2021/12/07 09:02:36;;;;;;;1.73;1.33;;;;;;;1.04;92.79;93365.91;5131720;27;20211;-78
2021/12/07 09:05:03;;;;;;;1.73;1.35;;;;;;;1.04;93.06;93349.91;5129037;27;20675;-78
2021/12/07 09:07:31;;;;;;;1.95;1.55;;;;;;;1.07;92.82;93353.84;5138218;27;20726;-79
2021/12/07 09:09:58;;;;;;;1.15;1.05;;;;;;;1.02;93.50;93353.94;5127168;27;20204;-77
2021/12/07 09:12:25;;;;;;;3.30;1.73;;;;;;;0.95;93.55;93350.91;5131716;27;20205;-83
2021/12/07 09:14:53;;;;;;;3.10;1.95;;;;;;;1.05;93.13;93358.69;5123128;27;20273;-81
2021/12/07 09:17:20;;;;;;;2.75;1.45;;;;;;;1.03;92.79;93347.53;5131496;27;20204;-78
2021/12/07 09:19:47;;;;;;;2.42;1.65;;;;;;;1.03;92.16;93342.19;5131750;27;20209;-75
2021/12/07 09:22:14;;;;;;;4.20;1.48;;;;;;;1.11;92.30;93349.47;5130770;27;20724;-78
2021/12/07 09:24:43;;;;;;;4.28;1.00;;;;;;;0.99;92.07;93346.53;5130998;27;20240;-79
2021/12/07 09:27:09;;;;;;;4.43;1.20;;;;;;;1.04;92.43;93339.25;5132501;27;20209;-83
2021/12/07 09:29:37;;;;;;;1.75;1.65;;;;;;;1.18;92.49;93338.41;5124574;27;20230;-79
2021/12/07 09:32:04;;;;;;;1.58;0.90;;;;;;;1.15;92.35;93339.81;5110425;28;20300;-85
2021/12/07 09:34:31;;;;;;;1.80;1.17;;;;;;;1.09;91.79;93340.22;5123350;27;20205;-81
2021/12/07 09:36:58;;;;;;;2.60;1.27;;;;;;;1.12;92.19;93335.06;5125514;27;20559;-80
2021/12/07 09:39:26;;;;;;;1.38;1.05;;;;;;;1.10;92.16;93337.25;5110676;28;20216;-82
2021/12/07 09:41:55;;;;;;;1.42;1.10;;;;;;;1.26;92.13;93330.47;5125156;27;20260;-82
2021/12/07 09:44:22;;;;;;;1.33;1.15;;;;;;;1.27;90.96;93337.41;5127356;27;20746;-80
2021/12/07 09:46:49;;;;;;;1.52;1.13;;;;;;;1.26;90.99;93330.47;5130518;27;20205;-80
2021/12/07 09:49:17;;;;;;;2.58;1.17;;;;;;;1.35;91.25;93323.34;5130202;27;20739;-81
2021/12/07 09:51:45;;;;;;;1.75;1.08;;;;;;;1.35;91.00;93323.34;5132374;27;20557;-80
2021/12/07 09:54:13;;;;;;;4.47;1.45;;;;;;;1.46;91.35;93326.56;5130374;27;20205;-80
2021/12/07 09:56:40;;;;;;;3.85;1.70;;;;;;;1.70;90.84;93312.91;5125150;27;20725;-82
2021/12/07 09:59:10;;;;;;;2.15;1.42;;;;;;;1.73;90.40;93317.66;5126908;27;20217;-80
2021/12/07 10:01:38;;;;;;;2.58;1.23;;;;;;;1.62;90.27;93324.34;5119311;27;20511;-80
2021/12/07 10:04:05;;;;;;;3.08;1.75;;;;;;;1.53;89.99;93324.25;5133738;27;20239;-81
2021/12/07 10:06:32;;;;;;;2.40;1.48;;;;;;;1.50;90.83;93332.09;5131043;27;20201;-79
2021/12/07 10:08:59;;;;;;;1.45;1.30;;;;;;;1.40;90.56;93330.44;5130048;27;20663;-81
2021/12/07 10:11:26;;;;;;;3.42;1.92;;;;;;;1.51;90.71;93325.63;5129642;27;20590;-82
2021/12/07 10:13:54;;;;;;;2.45;1.58;;;;;;;1.38;90.33;93330.72;5130685;27;20201;-79
2021/12/07 10:16:25;;;;;;;1.30;1.20;;;;;;;1.51;90.82;93325.63;5130476;27;20604;-79
2021/12/07 10:18:52;;;;;;;1.20;1.10;;;;;;;1.47;90.36;93319.34;5130484;27;20205;-79
2021/12/07 10:21:23;;;;;;;1.95;1.05;;;;;;;1.77;90.21;93308.75;5139562;27;20204;-81
2021/12/07 10:23:53;;;;;;;1.85;1.40;;;;;;;1.89;89.77;93313.50;5113470;27;20633;-81
2021/12/07 10:26:23;;;;;;;1.60;1.35;;;;;;;1.72;89.28;93300.06;5130672;27;20429;-82
2021/12/07 10:28:51;;;;;;;1.33;1.23;;;;;;;1.58;90.26;93304.69;5130378;27;20228;-80
2021/12/07 10:31:31;;;;;;;0.93;0.85;;;;;;;1.54;88.97;93288.47;5140471;27;20204;-77
2021/12/07 10:34:01;;;;;;;1.33;1.23;;;;;;;1.44;90.16;93310.06;5111985;27;20196;-84
2021/12/07 10:36:30;;;;;;;0.70;0.70;;;;;;;1.68;89.49;93310.53;5130348;27;20224;-85
2021/12/07 10:39:01;;;;;;;2.22;1.40;;;;;;;1.49;89.06;93311.84;5118165;27;20638;-79
2021/12/07 10:41:32;;;;;;;1.13;1.02;;;;;;;1.59;89.60;93308.91;5128243;27;20236;-86
2021/12/07 10:44:02;;;;;;;1.60;1.05;;;;;;;1.42;90.01;93313.03;5125717;27;20220;-82
2021/12/07 10:46:52;;;;;;;1.92;0.98;;;;;;;1.55;88.75;93305.28;5130456;27;20577;-84
2021/12/07 10:49:43;;;;;;;2.30;1.23;;;;;;;1.42;90.32;93313.03;5129551;27;20671;-84
2021/12/07 10:52:24;;;;;;;1.80;1.33;;;;;;;1.49;90.46;93311.84;5120200;27;20200;-83
2021/12/07 10:55:01;;;;;;;1.88;1.20;;;;;;;1.29;90.01;93313.88;5139887;27;20200;-82
2021/12/07 10:57:32;;;;;;;4.15;2.38;;;;;;;1.17;90.94;93300.28;5130285;27;20204;-81
2021/12/07 11:00:07;;;;;;;1.35;1.25;;;;;;;1.22;90.39;93297.53;5130208;27;20201;-82
2021/12/07 11:02:37;;;;;;;2.42;1.15;;;;;;;1.35;90.67;93296.69;5133459;27;20208;-80
2021/12/07 11:05:06;;;;;;;1.58;1.40;;;;;;;1.36;90.09;93282.25;5127715;27;20583;-78
2021/12/07 11:07:36;;;;;;;2.47;1.15;;;;;;;1.25;90.33;93283.56;5115856;27;20652;-79
2021/12/07 11:10:09;;;;;;;1.50;1.17;;;;;;;1.37;89.77;93283.81;5110635;28;20210;-80
2021/12/07 11:12:49;;;;;;;0.93;0.85;;;;;;;1.25;90.62;93278.22;5131579;27;20211;-82
2021/12/07 11:15:26;;;;;;;1.85;0.93;;;;;;;1.38;89.67;93276.59;5111667;27;20227;-79
2021/12/07 11:17:57;;;;;;;2.05;1.17;;;;;;;1.26;90.04;93277.13;5119511;27;20568;-79
2021/12/07 11:20:25;;;;;;;3.03;1.42;;;;;;;1.31;89.80;93271.69;5131287;27;20209;-78
2021/12/07 11:22:57;;;;;;;1.08;1.00;;;;;;;1.13;90.53;93277.19;5127198;27;20265;-80
2021/12/07 11:31:29;;;;;;;1.33;1.23;;;;;;;1.24;90.67;93295.31;5113295;28;20300;-79
2021/12/07 11:34:09;;;;;;;1.33;1.23;;;;;;;1.52;89.87;93276.53;5141711;27;20192;-79
2021/12/07 11:36:38;;;;;;;1.67;1.20;;;;;;;1.60;89.42;93255.25;5117432;28;20713;-78
2021/12/07 11:39:20;;;;;;;2.53;1.35;;;;;;;1.64;88.88;93266.13;5113379;28;20564;-77
2021/12/07 11:41:55;;;;;;;2.58;1.55;;;;;;;1.72;88.00;93268.03;5117448;28;20240;-80
2021/12/07 11:44:22;;;;;;;3.45;1.88;;;;;;;1.76;88.00;93269.78;5113834;27;20628;-77
2021/12/07 11:46:52;;;;;;;1.08;0.98;;;;;;;1.67;88.61;93276.16;5118549;27;20301;-78
2021/12/07 11:49:22;;;;;;;1.50;1.30;;;;;;;1.59;87.95;93280.38;5130858;27;20205;-78
2021/12/07 11:51:55;;;;;;;1.55;1.25;;;;;;;1.46;88.32;93285.75;5130076;27;20208;-78
2021/12/07 11:54:26;;;;;;;2.22;1.48;;;;;;;1.44;88.03;93286.06;5140462;27;20188;-77
2021/12/07 11:56:53;;;;;;;2.03;1.15;;;;;;;1.64;87.45;93268.78;5117021;27;20204;-77
2021/12/07 11:59:20;;;;;;;3.50;1.52;;;;;;;1.48;88.47;93278.25;5120334;27;20201;-79
2021/12/07 12:01:49;;;;;;;1.63;1.10;;;;;;;1.38;88.81;93276.59;5143176;27;20209;-77
2021/12/07 12:04:19;;;;;;;2.78;1.70;;;;;;;1.32;88.84;93278.63;5123834;27;20606;-77
2021/12/07 12:06:49;;;;;;;3.20;2.20;;;;;;;1.42;88.20;93275.69;5147280;27;20193;-77
2021/12/07 12:09:17;;;;;;;1.70;1.50;;;;;;;1.39;87.31;93276.28;5133889;27;20684;-77
2021/12/07 12:11:52;;;;;;;2.65;1.73;;;;;;;1.51;87.95;93277.63;5134013;27;20224;-77
2021/12/07 12:14:36;;;;;;;1.30;0.93;;;;;;;1.36;87.20;93266.25;5133851;27;20250;-79
2021/12/07 12:17:09;;;;;;;1.08;0.98;;;;;;;1.59;87.47;93274.22;5134146;27;20245;-76
2021/12/07 12:19:47;;;;;;;2.00;1.15;;;;;;;1.64;86.93;93274.13;5134430;27;20561;-77
2021/12/07 12:22:26;;;;;;;3.35;1.60;;;;;;;1.62;86.23;93276.31;5133463;27;20567;-79
2021/12/07 12:24:55;;;;;;;1.65;1.30;;;;;;;1.63;86.76;93261.88;5139194;27;21100;-78
2021/12/07 12:27:27;;;;;;;2.05;1.33;;;;;;;1.51;86.34;93256.28;5131990;27;20459;-76
2021/12/07 12:29:58;;;;;;;2.53;1.80;;;;;;;1.42;87.40;93261.56;5124823;27;20315;-77
2021/12/07 12:32:29;;;;;;;1.63;1.35;;;;;;;1.40;87.17;93256.53;5128839;27;20189;-77
2021/12/07 12:34:57;;;;;;;1.40;1.23;;;;;;;1.52;87.39;93247.19;5123998;27;20197;-78
2021/12/07 12:37:31;;;;;;;2.67;1.73;;;;;;;1.33;87.87;93258.84;5112399;28;20663;-78
2021/12/07 12:40:00;;;;;;;3.83;1.55;;;;;;;1.40;87.59;93256.53;5123769;27;20220;-77
2021/12/07 12:42:32;;;;;;;1.98;1.42;;;;;;;1.47;87.29;93266.78;5133682;27;20250;-78
2021/12/07 12:45:11;;;;;;;2.40;1.95;;;;;;;1.48;87.57;93262.25;5133072;27;20297;-77
2021/12/07 12:47:40;;;;;;;3.80;1.60;;;;;;;1.47;87.20;93271.34;5146127;27;20195;-78
2021/12/07 12:50:14;;;;;;;1.00;0.98;;;;;;;1.42;87.80;93270.34;5112941;28;20251;-77
2021/12/07 12:52:45;;;;;;;2.10;1.58;;;;;;;1.26;86.25;93266.47;5112563;28;20656;-75
2021/12/07 12:55:30;;;;;;;0.90;0.85;;;;;;;1.26;87.15;93277.13;5112497;28;20201;-78
2021/12/07 12:57:57;;;;;;;4.43;1.77;;;;;;;1.29;87.54;93289.09;5138798;27;20201;-78
2021/12/07 13:00:24;;;;;;;1.77;1.55;;;;;;;1.22;87.87;93286.84;5127816;27;20209;-78
2021/12/07 13:02:53;;;;;;;2.13;1.92;;;;;;;1.28;87.89;93282.19;5112085;28;20213;-78
2021/12/07 13:05:34;;;;;;;3.15;1.70;;;;;;;1.29;88.08;93284.53;5126034;27;20232;-78
2021/12/07 13:08:30;;;;;;;1.25;1.08;;;;;;;1.20;87.37;93283.69;5132467;27;20197;-78
2021/12/07 13:10:59;;;;;;;2.20;1.55;;;;;;;1.37;87.25;93294.47;5087635;28;20210;-78
2021/12/07 13:13:31;;;;;;;1.70;1.40;;;;;;;1.19;87.23;93292.78;5124925;27;20205;-79